sensor_id;sensor_type;location;lat;lon;timestamp;P1;durP1;ratioP1;P2;durP2;ratioP2
31043;SDS011;17710;52.520;13.352;2023-04-29T00:02:26;7.28;;;4.80;;
31043;SDS011;17710;52.520;13.352;2023-04-29T00:04:56;7.35;;;5.05;;
31043;SDS011;17710;52.520;13.352;2023-04-29T00:07:22;9.50;;;5.38;;
31043;SDS011;17710;52.520;13.352;2023-04-29T00:09:49;9.57;;;5.22;;
31043;SDS011;17710;52.520;13.352;2023-04-29T00:12:15;10.07;;;5.38;;
31043;SDS011;17710;52.520;13.352;2023-04-29T00:14:42;8.25;;;5.53;;
31043;SDS011;17710;52.520;13.352;2023-04-29T00:17:08;8.20;;;5.32;;
31043;SDS011;17710;52.520;13.352;2023-04-29T00:19:36;8.75;;;5.80;;
31043;SDS011;17710;52.520;13.352;2023-04-29T00:22:02;7.95;;;5.13;;
31043;SDS011;17710;52.520;13.352;2023-04-29T00:24:29;12.07;;;5.53;;
31043;SDS011;17710;52.520;13.352;2023-04-29T00:26:55;7.93;;;5.63;;
31043;SDS011;17710;52.520;13.352;2023-04-29T00:29:22;7.55;;;4.78;;
31043;SDS011;17710;52.520;13.352;2023-04-29T00:31:48;12.68;;;5.70;;
31043;SDS011;17710;52.520;13.352;2023-04-29T00:34:15;9.02;;;5.60;;
31043;SDS011;17710;52.520;13.352;2023-04-29T00:36:42;10.55;;;5.70;;
31043;SDS011;17710;52.520;13.352;2023-04-29T00:39:09;10.82;;;5.80;;
31043;SDS011;17710;52.520;13.352;2023-04-29T00:41:35;11.50;;;5.78;;
31043;SDS011;17710;52.520;13.352;2023-04-29T00:44:03;7.53;;;5.22;;
31043;SDS011;17710;52.520;13.352;2023-04-29T00:46:29;7.22;;;5.50;;
31043;SDS011;17710;52.520;13.352;2023-04-29T00:48:57;9.18;;;5.15;;
31043;SDS011;17710;52.520;13.352;2023-04-29T00:51:24;10.18;;;5.93;;
31043;SDS011;17710;52.520;13.352;2023-04-29T00:53:53;9.90;;;5.55;;
31043;SDS011;17710;52.520;13.352;2023-04-29T00:56:20;8.00;;;5.45;;
31043;SDS011;17710;52.520;13.352;2023-04-29T00:58:47;8.98;;;5.65;;
31043;SDS011;17710;52.520;13.352;2023-04-29T01:01:15;11.73;;;5.70;;
31043;SDS011;17710;52.520;13.352;2023-04-29T01:03:42;7.15;;;5.50;;
31043;SDS011;17710;52.520;13.352;2023-04-29T01:06:11;8.25;;;5.65;;
31043;SDS011;17710;52.520;13.352;2023-04-29T01:08:49;9.02;;;5.55;;
31043;SDS011;17710;52.520;13.352;2023-04-29T01:11:24;10.43;;;5.80;;
31043;SDS011;17710;52.520;13.352;2023-04-29T01:13:58;8.82;;;6.25;;
31043;SDS011;17710;52.520;13.352;2023-04-29T01:16:28;11.40;;;7.07;;
31043;SDS011;17710;52.520;13.352;2023-04-29T01:19:01;10.63;;;6.47;;
31043;SDS011;17710;52.520;13.352;2023-04-29T01:21:31;10.52;;;6.95;;
31043;SDS011;17710;52.520;13.352;2023-04-29T01:23:59;14.07;;;7.35;;
31043;SDS011;17710;52.520;13.352;2023-04-29T01:26:26;17.92;;;6.32;;
31043;SDS011;17710;52.520;13.352;2023-04-29T01:28:57;14.45;;;7.03;;
31043;SDS011;17710;52.520;13.352;2023-04-29T01:31:37;12.45;;;7.07;;
31043;SDS011;17710;52.520;13.352;2023-04-29T01:34:07;14.13;;;7.07;;
31043;SDS011;17710;52.520;13.352;2023-04-29T01:36:36;12.27;;;6.95;;
31043;SDS011;17710;52.520;13.352;2023-04-29T01:39:14;14.07;;;8.90;;
31043;SDS011;17710;52.520;13.352;2023-04-29T01:41:49;13.80;;;7.80;;
31043;SDS011;17710;52.520;13.352;2023-04-29T01:44:20;10.10;;;7.05;;
31043;SDS011;17710;52.520;13.352;2023-04-29T01:46:49;13.63;;;7.80;;
31043;SDS011;17710;52.520;13.352;2023-04-29T01:49:19;9.00;;;7.50;;
31043;SDS011;17710;52.520;13.352;2023-04-29T01:51:45;13.45;;;7.80;;
31043;SDS011;17710;52.520;13.352;2023-04-29T01:54:13;12.43;;;8.40;;
31043;SDS011;17710;52.520;13.352;2023-04-29T01:56:39;12.02;;;7.95;;
31043;SDS011;17710;52.520;13.352;2023-04-29T01:59:06;11.15;;;8.15;;
31043;SDS011;17710;52.520;13.352;2023-04-29T02:01:33;12.15;;;8.07;;
31043;SDS011;17710;52.520;13.352;2023-04-29T02:03:59;12.63;;;8.68;;
31043;SDS011;17710;52.520;13.352;2023-04-29T02:06:26;11.30;;;8.23;;
31043;SDS011;17710;52.520;13.352;2023-04-29T02:08:52;11.90;;;8.35;;
31043;SDS011;17710;52.520;13.352;2023-04-29T02:11:20;12.90;;;8.40;;
31043;SDS011;17710;52.520;13.352;2023-04-29T02:13:46;14.63;;;8.40;;
31043;SDS011;17710;52.520;13.352;2023-04-29T02:16:13;13.95;;;10.02;;
31043;SDS011;17710;52.520;13.352;2023-04-29T02:18:41;12.63;;;8.90;;
31043;SDS011;17710;52.520;13.352;2023-04-29T02:21:07;11.27;;;8.65;;
31043;SDS011;17710;52.520;13.352;2023-04-29T02:23:34;11.65;;;9.30;;
31043;SDS011;17710;52.520;13.352;2023-04-29T02:26:01;10.95;;;8.60;;
31043;SDS011;17710;52.520;13.352;2023-04-29T02:28:30;15.90;;;9.27;;
31043;SDS011;17710;52.520;13.352;2023-04-29T02:30:57;13.55;;;9.40;;
31043;SDS011;17710;52.520;13.352;2023-04-29T02:33:23;15.32;;;9.60;;
31043;SDS011;17710;52.520;13.352;2023-04-29T02:35:49;14.25;;;10.02;;
31043;SDS011;17710;52.520;13.352;2023-04-29T02:38:16;15.90;;;9.38;;
31043;SDS011;17710;52.520;13.352;2023-04-29T02:40:42;16.05;;;10.30;;
31043;SDS011;17710;52.520;13.352;2023-04-29T02:43:09;13.50;;;9.40;;
31043;SDS011;17710;52.520;13.352;2023-04-29T02:45:38;16.50;;;10.23;;
31043;SDS011;17710;52.520;13.352;2023-04-29T02:48:05;17.17;;;11.15;;
31043;SDS011;17710;52.520;13.352;2023-04-29T02:50:32;14.95;;;10.40;;
31043;SDS011;17710;52.520;13.352;2023-04-29T02:52:58;15.73;;;11.02;;
31043;SDS011;17710;52.520;13.352;2023-04-29T02:55:25;12.63;;;9.50;;
31043;SDS011;17710;52.520;13.352;2023-04-29T02:57:51;15.02;;;10.73;;
31043;SDS011;17710;52.520;13.352;2023-04-29T03:00:18;14.35;;;10.13;;
31043;SDS011;17710;52.520;13.352;2023-04-29T03:02:47;14.93;;;10.80;;
31043;SDS011;17710;52.520;13.352;2023-04-29T03:05:13;14.27;;;11.48;;
31043;SDS011;17710;52.520;13.352;2023-04-29T03:07:39;17.77;;;12.35;;
31043;SDS011;17710;52.520;13.352;2023-04-29T03:10:06;14.68;;;11.27;;
31043;SDS011;17710;52.520;13.352;2023-04-29T03:12:33;18.80;;;11.98;;
31043;SDS011;17710;52.520;13.352;2023-04-29T03:15:00;15.68;;;11.70;;
31043;SDS011;17710;52.520;13.352;2023-04-29T03:17:26;15.40;;;12.23;;
31043;SDS011;17710;52.520;13.352;2023-04-29T03:19:54;16.23;;;11.90;;
31043;SDS011;17710;52.520;13.352;2023-04-29T03:22:20;14.30;;;12.13;;
31043;SDS011;17710;52.520;13.352;2023-04-29T03:24:47;15.18;;;12.10;;
31043;SDS011;17710;52.520;13.352;2023-04-29T03:27:13;19.10;;;12.65;;
31043;SDS011;17710;52.520;13.352;2023-04-29T03:29:39;18.10;;;13.55;;
31043;SDS011;17710;52.520;13.352;2023-04-29T03:32:06;17.67;;;13.20;;
31043;SDS011;17710;52.520;13.352;2023-04-29T03:34:32;18.63;;;14.13;;
31043;SDS011;17710;52.520;13.352;2023-04-29T03:37:00;18.90;;;13.57;;
31043;SDS011;17710;52.520;13.352;2023-04-29T03:39:26;18.75;;;14.70;;
31043;SDS011;17710;52.520;13.352;2023-04-29T03:41:56;20.83;;;13.85;;
31043;SDS011;17710;52.520;13.352;2023-04-29T03:44:23;22.55;;;14.75;;
31043;SDS011;17710;52.520;13.352;2023-04-29T03:46:49;19.75;;;14.77;;
31043;SDS011;17710;52.520;13.352;2023-04-29T03:49:16;22.30;;;15.25;;
31043;SDS011;17710;52.520;13.352;2023-04-29T03:51:42;23.27;;;14.98;;
31043;SDS011;17710;52.520;13.352;2023-04-29T03:54:11;22.52;;;15.13;;
31043;SDS011;17710;52.520;13.352;2023-04-29T03:56:38;25.80;;;15.88;;
31043;SDS011;17710;52.520;13.352;2023-04-29T03:59:05;23.58;;;16.05;;
31043;SDS011;17710;52.520;13.352;2023-04-29T04:01:31;21.92;;;16.40;;
31043;SDS011;17710;52.520;13.352;2023-04-29T04:03:58;24.05;;;16.70;;
31043;SDS011;17710;52.520;13.352;2023-04-29T04:06:24;22.30;;;16.33;;
31043;SDS011;17710;52.520;13.352;2023-04-29T04:09:00;23.80;;;17.17;;
31043;SDS011;17710;52.520;13.352;2023-04-29T04:11:28;26.20;;;17.65;;
31043;SDS011;17710;52.520;13.352;2023-04-29T04:13:54;25.38;;;16.80;;
31043;SDS011;17710;52.520;13.352;2023-04-29T04:16:21;23.90;;;17.38;;
31043;SDS011;17710;52.520;13.352;2023-04-29T04:18:47;21.48;;;17.10;;
31043;SDS011;17710;52.520;13.352;2023-04-29T04:21:14;21.83;;;16.73;;
31043;SDS011;17710;52.520;13.352;2023-04-29T04:23:40;25.17;;;17.77;;
31043;SDS011;17710;52.520;13.352;2023-04-29T04:26:08;29.65;;;18.48;;
31043;SDS011;17710;52.520;13.352;2023-04-29T04:28:36;26.20;;;18.83;;
31043;SDS011;17710;52.520;13.352;2023-04-29T04:31:02;25.38;;;17.58;;
31043;SDS011;17710;52.520;13.352;2023-04-29T04:33:29;26.42;;;17.73;;
31043;SDS011;17710;52.520;13.352;2023-04-29T04:35:56;25.35;;;18.55;;
31043;SDS011;17710;52.520;13.352;2023-04-29T04:38:23;25.00;;;17.83;;
31043;SDS011;17710;52.520;13.352;2023-04-29T04:40:50;31.05;;;18.58;;
31043;SDS011;17710;52.520;13.352;2023-04-29T04:43:16;25.83;;;17.90;;
31043;SDS011;17710;52.520;13.352;2023-04-29T04:45:44;25.15;;;17.63;;
31043;SDS011;17710;52.520;13.352;2023-04-29T04:48:10;26.90;;;18.95;;
31043;SDS011;17710;52.520;13.352;2023-04-29T04:50:37;26.15;;;19.27;;
31043;SDS011;17710;52.520;13.352;2023-04-29T04:53:04;27.48;;;18.52;;
31043;SDS011;17710;52.520;13.352;2023-04-29T04:55:30;27.73;;;17.83;;
31043;SDS011;17710;52.520;13.352;2023-04-29T04:57:57;27.60;;;19.67;;
31043;SDS011;17710;52.520;13.352;2023-04-29T05:00:24;29.48;;;19.83;;
31043;SDS011;17710;52.520;13.352;2023-04-29T05:02:52;28.17;;;20.20;;
31043;SDS011;17710;52.520;13.352;2023-04-29T05:05:18;28.40;;;20.08;;
31043;SDS011;17710;52.520;13.352;2023-04-29T05:07:45;31.67;;;20.83;;
31043;SDS011;17710;52.520;13.352;2023-04-29T05:10:11;28.02;;;19.40;;
31043;SDS011;17710;52.520;13.352;2023-04-29T05:12:38;29.70;;;19.75;;
31043;SDS011;17710;52.520;13.352;2023-04-29T05:15:05;27.70;;;20.33;;
31043;SDS011;17710;52.520;13.352;2023-04-29T05:17:32;27.73;;;19.77;;
31043;SDS011;17710;52.520;13.352;2023-04-29T05:20:01;28.33;;;20.42;;
31043;SDS011;17710;52.520;13.352;2023-04-29T05:22:29;27.95;;;19.98;;
31043;SDS011;17710;52.520;13.352;2023-04-29T05:24:56;27.63;;;19.08;;
31043;SDS011;17710;52.520;13.352;2023-04-29T05:27:27;27.60;;;19.90;;
31043;SDS011;17710;52.520;13.352;2023-04-29T05:29:54;27.10;;;19.92;;
31043;SDS011;17710;52.520;13.352;2023-04-29T05:32:21;28.10;;;20.58;;
31043;SDS011;17710;52.520;13.352;2023-04-29T05:34:47;28.42;;;19.98;;
31043;SDS011;17710;52.520;13.352;2023-04-29T05:37:20;25.75;;;19.52;;
31043;SDS011;17710;52.520;13.352;2023-04-29T05:39:46;26.23;;;19.48;;
31043;SDS011;17710;52.520;13.352;2023-04-29T05:42:13;29.48;;;20.10;;
31043;SDS011;17710;52.520;13.352;2023-04-29T05:44:42;27.92;;;19.90;;
31043;SDS011;17710;52.520;13.352;2023-04-29T05:47:09;28.17;;;20.20;;
31043;SDS011;17710;52.520;13.352;2023-04-29T05:49:35;26.80;;;19.33;;
31043;SDS011;17710;52.520;13.352;2023-04-29T05:52:01;26.42;;;19.27;;
31043;SDS011;17710;52.520;13.352;2023-04-29T05:54:32;26.23;;;18.13;;
31043;SDS011;17710;52.520;13.352;2023-04-29T05:56:59;28.83;;;20.02;;
31043;SDS011;17710;52.520;13.352;2023-04-29T05:59:27;25.27;;;19.13;;
31043;SDS011;17710;52.520;13.352;2023-04-29T06:01:53;27.05;;;20.20;;
31043;SDS011;17710;52.520;13.352;2023-04-29T06:04:20;29.55;;;19.90;;
31043;SDS011;17710;52.520;13.352;2023-04-29T06:06:46;30.40;;;20.40;;
31043;SDS011;17710;52.520;13.352;2023-04-29T06:09:13;28.02;;;19.40;;
31043;SDS011;17710;52.520;13.352;2023-04-29T06:11:41;27.92;;;19.83;;
31043;SDS011;17710;52.520;13.352;2023-04-29T06:14:09;26.75;;;19.00;;
31043;SDS011;17710;52.520;13.352;2023-04-29T06:16:35;29.08;;;19.33;;
31043;SDS011;17710;52.520;13.352;2023-04-29T06:19:02;32.13;;;19.70;;
31043;SDS011;17710;52.520;13.352;2023-04-29T06:21:28;25.48;;;18.73;;
31043;SDS011;17710;52.520;13.352;2023-04-29T06:23:55;27.05;;;19.05;;
31043;SDS011;17710;52.520;13.352;2023-04-29T06:26:22;27.63;;;18.33;;
31043;SDS011;17710;52.520;13.352;2023-04-29T06:28:50;26.88;;;18.58;;
31043;SDS011;17710;52.520;13.352;2023-04-29T06:31:18;27.65;;;18.52;;
31043;SDS011;17710;52.520;13.352;2023-04-29T06:33:44;28.92;;;19.95;;
31043;SDS011;17710;52.520;13.352;2023-04-29T06:36:11;27.88;;;18.05;;
31043;SDS011;17710;52.520;13.352;2023-04-29T06:38:38;27.90;;;18.55;;
31043;SDS011;17710;52.520;13.352;2023-04-29T06:41:04;31.10;;;19.77;;
31043;SDS011;17710;52.520;13.352;2023-04-29T06:43:31;28.27;;;19.17;;
31043;SDS011;17710;52.520;13.352;2023-04-29T06:45:59;26.42;;;18.20;;
31043;SDS011;17710;52.520;13.352;2023-04-29T06:48:25;28.08;;;19.25;;
31043;SDS011;17710;52.520;13.352;2023-04-29T06:50:53;29.90;;;18.58;;
31043;SDS011;17710;52.520;13.352;2023-04-29T06:53:20;28.05;;;18.20;;
31043;SDS011;17710;52.520;13.352;2023-04-29T06:55:47;23.23;;;16.50;;
31043;SDS011;17710;52.520;13.352;2023-04-29T06:58:14;24.00;;;15.25;;
31043;SDS011;17710;52.520;13.352;2023-04-29T07:00:43;22.50;;;15.38;;
31043;SDS011;17710;52.520;13.352;2023-04-29T07:03:11;20.63;;;15.68;;
31043;SDS011;17710;52.520;13.352;2023-04-29T07:05:38;22.48;;;15.00;;
31043;SDS011;17710;52.520;13.352;2023-04-29T07:08:07;23.50;;;15.48;;
31043;SDS011;17710;52.520;13.352;2023-04-29T07:10:35;23.63;;;16.80;;
31043;SDS011;17710;52.520;13.352;2023-04-29T07:13:01;27.90;;;16.55;;
31043;SDS011;17710;52.520;13.352;2023-04-29T07:15:28;26.42;;;16.17;;
31043;SDS011;17710;52.520;13.352;2023-04-29T07:17:55;25.83;;;16.90;;
31043;SDS011;17710;52.520;13.352;2023-04-29T07:20:23;29.70;;;18.13;;
31043;SDS011;17710;52.520;13.352;2023-04-29T07:22:50;29.85;;;17.73;;
31043;SDS011;17710;52.520;13.352;2023-04-29T07:25:16;29.38;;;16.77;;
31043;SDS011;17710;52.520;13.352;2023-04-29T07:27:43;29.45;;;17.58;;
31043;SDS011;17710;52.520;13.352;2023-04-29T07:30:09;33.42;;;19.17;;
31043;SDS011;17710;52.520;13.352;2023-04-29T07:32:36;32.42;;;18.63;;
31043;SDS011;17710;52.520;13.352;2023-04-29T07:35:03;30.92;;;17.98;;
31043;SDS011;17710;52.520;13.352;2023-04-29T07:37:31;35.63;;;20.23;;
31043;SDS011;17710;52.520;13.352;2023-04-29T07:39:57;27.42;;;17.67;;
31043;SDS011;17710;52.520;13.352;2023-04-29T07:42:24;23.92;;;16.48;;
31043;SDS011;17710;52.520;13.352;2023-04-29T07:44:51;28.27;;;16.73;;
31043;SDS011;17710;52.520;13.352;2023-04-29T07:47:17;26.02;;;17.63;;
31043;SDS011;17710;52.520;13.352;2023-04-29T07:49:44;22.83;;;16.50;;
31043;SDS011;17710;52.520;13.352;2023-04-29T07:52:10;22.98;;;15.60;;
31043;SDS011;17710;52.520;13.352;2023-04-29T07:54:38;21.98;;;16.00;;
31043;SDS011;17710;52.520;13.352;2023-04-29T07:57:04;21.02;;;15.00;;
31043;SDS011;17710;52.520;13.352;2023-04-29T07:59:31;20.77;;;14.15;;
31043;SDS011;17710;52.520;13.352;2023-04-29T08:01:58;17.73;;;13.35;;
31043;SDS011;17710;52.520;13.352;2023-04-29T08:04:24;21.90;;;13.13;;
31043;SDS011;17710;52.520;13.352;2023-04-29T08:06:50;15.25;;;11.98;;
31043;SDS011;17710;52.520;13.352;2023-04-29T08:09:17;17.33;;;11.38;;
31043;SDS011;17710;52.520;13.352;2023-04-29T08:11:45;15.65;;;12.32;;
31043;SDS011;17710;52.520;13.352;2023-04-29T08:14:11;13.15;;;10.50;;
31043;SDS011;17710;52.520;13.352;2023-04-29T08:16:38;13.13;;;9.88;;
31043;SDS011;17710;52.520;13.352;2023-04-29T08:19:04;15.70;;;10.85;;
31043;SDS011;17710;52.520;13.352;2023-04-29T08:21:30;15.45;;;10.18;;
31043;SDS011;17710;52.520;13.352;2023-04-29T08:23:58;15.63;;;10.55;;
31043;SDS011;17710;52.520;13.352;2023-04-29T08:26:25;13.40;;;10.77;;
31043;SDS011;17710;52.520;13.352;2023-04-29T08:28:52;14.07;;;11.27;;
31043;SDS011;17710;52.520;13.352;2023-04-29T08:31:19;17.77;;;11.68;;
31043;SDS011;17710;52.520;13.352;2023-04-29T08:33:47;15.60;;;11.30;;
31043;SDS011;17710;52.520;13.352;2023-04-29T08:36:14;16.85;;;12.00;;
31043;SDS011;17710;52.520;13.352;2023-04-29T08:38:40;19.95;;;11.50;;
31043;SDS011;17710;52.520;13.352;2023-04-29T08:41:07;15.57;;;11.00;;
31043;SDS011;17710;52.520;13.352;2023-04-29T08:43:34;16.65;;;12.20;;
31043;SDS011;17710;52.520;13.352;2023-04-29T08:46:03;20.05;;;12.68;;
31043;SDS011;17710;52.520;13.352;2023-04-29T08:48:30;14.50;;;10.50;;
31043;SDS011;17710;52.520;13.352;2023-04-29T08:50:57;13.25;;;9.90;;
31043;SDS011;17710;52.520;13.352;2023-04-29T08:53:27;14.50;;;10.95;;
31043;SDS011;17710;52.520;13.352;2023-04-29T08:55:54;13.50;;;10.77;;
31043;SDS011;17710;52.520;13.352;2023-04-29T08:58:25;15.10;;;10.88;;
31043;SDS011;17710;52.520;13.352;2023-04-29T09:00:54;16.95;;;12.13;;
31043;SDS011;17710;52.520;13.352;2023-04-29T09:03:25;17.58;;;11.88;;
31043;SDS011;17710;52.520;13.352;2023-04-29T09:05:55;17.35;;;12.70;;
31043;SDS011;17710;52.520;13.352;2023-04-29T09:08:25;16.85;;;12.38;;
31043;SDS011;17710;52.520;13.352;2023-04-29T09:10:53;18.00;;;13.15;;
31043;SDS011;17710;52.520;13.352;2023-04-29T09:13:23;17.05;;;11.90;;
31043;SDS011;17710;52.520;13.352;2023-04-29T09:15:50;19.63;;;13.48;;
31043;SDS011;17710;52.520;13.352;2023-04-29T09:21:12;22.10;;;13.88;;
31043;SDS011;17710;52.520;13.352;2023-04-29T09:23:40;22.10;;;14.73;;
31043;SDS011;17710;52.520;13.352;2023-04-29T09:26:06;22.33;;;15.57;;
31043;SDS011;17710;52.520;13.352;2023-04-29T09:28:33;25.25;;;15.93;;
31043;SDS011;17710;52.520;13.352;2023-04-29T09:31:00;27.08;;;17.13;;
31043;SDS011;17710;52.520;13.352;2023-04-29T09:33:30;28.30;;;17.27;;
31043;SDS011;17710;52.520;13.352;2023-04-29T09:35:58;27.25;;;18.67;;
31043;SDS011;17710;52.520;13.352;2023-04-29T09:38:25;25.73;;;16.85;;
31043;SDS011;17710;52.520;13.352;2023-04-29T09:40:51;30.17;;;19.35;;
31043;SDS011;17710;52.520;13.352;2023-04-29T09:43:20;35.35;;;20.50;;
31043;SDS011;17710;52.520;13.352;2023-04-29T09:45:47;35.97;;;21.73;;
31043;SDS011;17710;52.520;13.352;2023-04-29T09:48:14;35.53;;;21.92;;
31043;SDS011;17710;52.520;13.352;2023-04-29T09:50:41;37.28;;;22.63;;
31043;SDS011;17710;52.520;13.352;2023-04-29T09:53:10;36.88;;;22.27;;
31043;SDS011;17710;52.520;13.352;2023-04-29T09:55:56;44.80;;;24.08;;
31043;SDS011;17710;52.520;13.352;2023-04-29T09:58:26;45.90;;;25.80;;
31043;SDS011;17710;52.520;13.352;2023-04-29T10:00:54;50.92;;;27.48;;
31043;SDS011;17710;52.520;13.352;2023-04-29T10:03:21;49.22;;;28.75;;
31043;SDS011;17710;52.520;13.352;2023-04-29T10:05:48;52.25;;;29.65;;
31043;SDS011;17710;52.520;13.352;2023-04-29T10:08:16;53.38;;;30.10;;
31043;SDS011;17710;52.520;13.352;2023-04-29T10:10:43;57.13;;;31.63;;
31043;SDS011;17710;52.520;13.352;2023-04-29T10:13:11;55.47;;;32.40;;
31043;SDS011;17710;52.520;13.352;2023-04-29T10:15:38;55.65;;;33.00;;
31043;SDS011;17710;52.520;13.352;2023-04-29T10:18:17;54.97;;;31.90;;
31043;SDS011;17710;52.520;13.352;2023-04-29T10:20:46;52.75;;;31.45;;
31043;SDS011;17710;52.520;13.352;2023-04-29T10:23:14;54.15;;;31.70;;
31043;SDS011;17710;52.520;13.352;2023-04-29T10:25:43;59.55;;;31.92;;
31043;SDS011;17710;52.520;13.352;2023-04-29T10:28:12;56.95;;;31.98;;
31043;SDS011;17710;52.520;13.352;2023-04-29T10:30:41;60.78;;;32.58;;
31043;SDS011;17710;52.520;13.352;2023-04-29T10:33:09;52.58;;;31.48;;
31043;SDS011;17710;52.520;13.352;2023-04-29T10:35:36;54.80;;;30.63;;
31043;SDS011;17710;52.520;13.352;2023-04-29T10:38:04;45.75;;;28.75;;
31043;SDS011;17710;52.520;13.352;2023-04-29T10:40:39;43.15;;;29.27;;
31043;SDS011;17710;52.520;13.352;2023-04-29T10:43:10;44.50;;;26.88;;
31043;SDS011;17710;52.520;13.352;2023-04-29T10:45:37;44.47;;;26.52;;
31043;SDS011;17710;52.520;13.352;2023-04-29T10:48:08;39.53;;;24.90;;
31043;SDS011;17710;52.520;13.352;2023-04-29T10:50:39;43.47;;;26.30;;
31043;SDS011;17710;52.520;13.352;2023-04-29T10:53:28;40.72;;;26.02;;
31043;SDS011;17710;52.520;13.352;2023-04-29T10:55:57;39.22;;;25.70;;
31043;SDS011;17710;52.520;13.352;2023-04-29T11:01:13;36.15;;;22.23;;
31043;SDS011;17710;52.520;13.352;2023-04-29T11:03:44;32.45;;;21.25;;
31043;SDS011;17710;52.520;13.352;2023-04-29T11:06:12;36.38;;;24.77;;
31043;SDS011;17710;52.520;13.352;2023-04-29T11:08:39;30.15;;;20.10;;
31043;SDS011;17710;52.520;13.352;2023-04-29T11:11:08;28.70;;;21.08;;
31043;SDS011;17710;52.520;13.352;2023-04-29T11:13:36;32.28;;;20.92;;
31043;SDS011;17710;52.520;13.352;2023-04-29T11:16:05;32.67;;;20.95;;
31043;SDS011;17710;52.520;13.352;2023-04-29T11:18:32;28.23;;;18.45;;
31043;SDS011;17710;52.520;13.352;2023-04-29T11:21:12;28.63;;;18.08;;
31043;SDS011;17710;52.520;13.352;2023-04-29T11:23:39;22.98;;;17.90;;
31043;SDS011;17710;52.520;13.352;2023-04-29T11:26:06;28.90;;;17.25;;
31043;SDS011;17710;52.520;13.352;2023-04-29T11:28:34;26.50;;;16.85;;
31043;SDS011;17710;52.520;13.352;2023-04-29T11:31:01;22.38;;;16.05;;
31043;SDS011;17710;52.520;13.352;2023-04-29T11:33:30;28.20;;;17.15;;
31043;SDS011;17710;52.520;13.352;2023-04-29T11:35:58;22.15;;;16.98;;
31043;SDS011;17710;52.520;13.352;2023-04-29T11:38:24;24.55;;;16.60;;
31043;SDS011;17710;52.520;13.352;2023-04-29T11:40:50;23.10;;;15.48;;
31043;SDS011;17710;52.520;13.352;2023-04-29T11:43:17;23.55;;;14.57;;
31043;SDS011;17710;52.520;13.352;2023-04-29T11:45:49;24.13;;;14.60;;
31043;SDS011;17710;52.520;13.352;2023-04-29T11:48:16;24.05;;;14.30;;
31043;SDS011;17710;52.520;13.352;2023-04-29T11:50:43;21.55;;;13.90;;
31043;SDS011;17710;52.520;13.352;2023-04-29T11:53:11;22.40;;;13.75;;
31043;SDS011;17710;52.520;13.352;2023-04-29T11:55:38;16.70;;;12.52;;
31043;SDS011;17710;52.520;13.352;2023-04-29T11:58:07;19.92;;;12.85;;
31043;SDS011;17710;52.520;13.352;2023-04-29T12:00:33;17.00;;;13.35;;
31043;SDS011;17710;52.520;13.352;2023-04-29T12:03:05;22.15;;;13.50;;
31043;SDS011;17710;52.520;13.352;2023-04-29T12:05:33;21.13;;;13.30;;
31043;SDS011;17710;52.520;13.352;2023-04-29T12:08:00;20.17;;;13.65;;
31043;SDS011;17710;52.520;13.352;2023-04-29T12:10:26;20.73;;;13.38;;
31043;SDS011;17710;52.520;13.352;2023-04-29T12:12:53;20.48;;;13.57;;
31043;SDS011;17710;52.520;13.352;2023-04-29T12:15:20;17.27;;;13.75;;
31043;SDS011;17710;52.520;13.352;2023-04-29T12:17:46;21.02;;;14.00;;
31043;SDS011;17710;52.520;13.352;2023-04-29T12:20:14;20.63;;;13.73;;
31043;SDS011;17710;52.520;13.352;2023-04-29T12:22:41;24.90;;;12.68;;
31043;SDS011;17710;52.520;13.352;2023-04-29T12:25:08;19.75;;;12.93;;
31043;SDS011;17710;52.520;13.352;2023-04-29T12:27:38;19.77;;;13.05;;
31043;SDS011;17710;52.520;13.352;2023-04-29T12:30:06;18.67;;;12.68;;
31043;SDS011;17710;52.520;13.352;2023-04-29T12:32:33;20.02;;;12.40;;
31043;SDS011;17710;52.520;13.352;2023-04-29T12:35:00;19.75;;;12.18;;
31043;SDS011;17710;52.520;13.352;2023-04-29T12:37:28;19.10;;;11.40;;
31043;SDS011;17710;52.520;13.352;2023-04-29T12:39:55;16.50;;;11.20;;
31043;SDS011;17710;52.520;13.352;2023-04-29T12:42:22;19.88;;;11.55;;
31043;SDS011;17710;52.520;13.352;2023-04-29T12:44:48;17.60;;;11.93;;
31043;SDS011;17710;52.520;13.352;2023-04-29T12:47:15;15.38;;;9.52;;
31043;SDS011;17710;52.520;13.352;2023-04-29T12:49:42;18.58;;;10.30;;
31043;SDS011;17710;52.520;13.352;2023-04-29T12:52:10;20.20;;;10.88;;
31043;SDS011;17710;52.520;13.352;2023-04-29T12:54:38;15.63;;;9.75;;
31043;SDS011;17710;52.520;13.352;2023-04-29T12:57:07;13.68;;;8.48;;
31043;SDS011;17710;52.520;13.352;2023-04-29T12:59:34;12.43;;;8.55;;
31043;SDS011;17710;52.520;13.352;2023-04-29T13:02:00;11.48;;;8.02;;
31043;SDS011;17710;52.520;13.352;2023-04-29T13:04:27;10.82;;;7.28;;
31043;SDS011;17710;52.520;13.352;2023-04-29T13:06:53;9.10;;;7.22;;
31043;SDS011;17710;52.520;13.352;2023-04-29T13:09:24;12.95;;;7.78;;
31043;SDS011;17710;52.520;13.352;2023-04-29T13:11:52;8.70;;;6.85;;
31043;SDS011;17710;52.520;13.352;2023-04-29T13:14:19;10.27;;;5.90;;
31043;SDS011;17710;52.520;13.352;2023-04-29T13:16:45;10.52;;;6.72;;
31043;SDS011;17710;52.520;13.352;2023-04-29T13:19:12;6.65;;;5.80;;
31043;SDS011;17710;52.520;13.352;2023-04-29T13:21:38;5.50;;;4.63;;
31043;SDS011;17710;52.520;13.352;2023-04-29T13:24:05;5.47;;;4.95;;
31043;SDS011;17710;52.520;13.352;2023-04-29T13:26:31;6.35;;;4.40;;
31043;SDS011;17710;52.520;13.352;2023-04-29T13:28:59;6.20;;;4.28;;
31043;SDS011;17710;52.520;13.352;2023-04-29T13:31:25;5.57;;;4.20;;
31043;SDS011;17710;52.520;13.352;2023-04-29T13:33:52;7.07;;;4.57;;
31043;SDS011;17710;52.520;13.352;2023-04-29T13:36:19;6.72;;;4.70;;
31043;SDS011;17710;52.520;13.352;2023-04-29T13:38:45;5.20;;;4.60;;
31043;SDS011;17710;52.520;13.352;2023-04-29T13:41:12;6.82;;;4.57;;
31043;SDS011;17710;52.520;13.352;2023-04-29T13:43:39;6.60;;;5.20;;
31043;SDS011;17710;52.520;13.352;2023-04-29T13:46:07;13.32;;;5.90;;
31043;SDS011;17710;52.520;13.352;2023-04-29T13:48:33;12.73;;;6.05;;
31043;SDS011;17710;52.520;13.352;2023-04-29T13:50:59;11.00;;;6.65;;
31043;SDS011;17710;52.520;13.352;2023-04-29T13:53:26;10.93;;;6.70;;
31043;SDS011;17710;52.520;13.352;2023-04-29T13:55:52;12.30;;;6.47;;
31043;SDS011;17710;52.520;13.352;2023-04-29T13:58:19;11.57;;;6.68;;
31043;SDS011;17710;52.520;13.352;2023-04-29T14:00:45;14.00;;;7.80;;
31043;SDS011;17710;52.520;13.352;2023-04-29T14:03:14;13.63;;;7.55;;
31043;SDS011;17710;52.520;13.352;2023-04-29T14:05:42;13.38;;;7.78;;
31043;SDS011;17710;52.520;13.352;2023-04-29T14:08:09;11.77;;;6.88;;
31043;SDS011;17710;52.520;13.352;2023-04-29T14:10:35;11.57;;;6.70;;
31043;SDS011;17710;52.520;13.352;2023-04-29T14:13:02;14.75;;;7.25;;
31043;SDS011;17710;52.520;13.352;2023-04-29T14:15:29;11.15;;;6.32;;
31043;SDS011;17710;52.520;13.352;2023-04-29T14:17:55;10.68;;;6.72;;
31043;SDS011;17710;52.520;13.352;2023-04-29T14:20:23;18.13;;;10.30;;
31043;SDS011;17710;52.520;13.352;2023-04-29T14:22:49;14.85;;;6.30;;